Time;durP1;ratioP1;P1;durP2;ratioP2;P2;SDS_P1;SDS_P2;PMS_P1;PMS_P2;Temp;Humidity;BMP_temperature;BMP_pressure;BME280_temperature;BME280_humidity;BME280_pressure;Samples;Min_cycle;Max_cycle;Signal;HPM_P1;HPM_P2
2023/09/21 00:02:18;;;;;;;4.70;2.03;;;;;;;16.92;100.00;100019.00;4937273;28;20439;-71
2023/09/21 00:04:44;;;;;;;5.90;2.17;;;;;;;16.19;100.00;99918.53;4961739;28;20941;-72
2023/09/21 00:07:10;;;;;;;3.53;1.67;;;;;;;15.91;100.00;99876.38;4944033;28;20213;-71
2023/09/21 00:09:35;;;;;;;4.40;2.03;;;;;;;16.91;100.00;100024.66;4946687;28;20199;-71
2023/09/21 00:12:02;;;;;;;4.10;1.97;;;;;;;16.90;100.00;100020.34;4979303;28;20449;-71
2023/09/21 00:14:27;;;;;;;3.77;1.83;;;;;;;16.17;100.00;99892.78;4947346;28;20211;-71
2023/09/21 00:16:54;;;;;;;6.20;2.33;;;;;;;16.42;100.00;99939.00;4963521;28;21274;-71
2023/09/21 00:19:23;;;;;;;3.73;1.80;;;;;;;16.81;100.00;100005.66;4944358;28;20237;-71
2023/09/21 00:21:49;;;;;;;3.50;1.60;;;;;;;16.78;100.00;100014.28;4948256;28;20446;-71
2023/09/21 00:24:15;;;;;;;4.93;2.07;;;;;;;15.67;100.00;99838.00;4938634;28;20924;-71
2023/09/21 00:26:40;;;;;;;3.60;1.70;;;;;;;16.87;100.00;100010.84;4947943;28;20442;-71
2023/09/21 00:29:06;;;;;;;4.47;1.87;;;;;;;16.91;100.00;100008.41;4945292;28;20206;-72
2023/09/21 00:31:32;;;;;;;4.83;1.90;;;;;;;16.70;100.00;99970.34;4945660;28;20200;-71
2023/09/21 00:33:59;;;;;;;3.70;1.77;;;;;;;16.79;100.00;99989.66;4957595;28;20211;-71
2023/09/21 00:36:24;;;;;;;4.10;1.90;;;;;;;16.35;100.00;99922.19;4978282;28;20438;-71
2023/09/21 00:38:51;;;;;;;4.17;2.17;;;;;;;16.69;100.00;99998.50;4979294;28;20845;-71
2023/09/21 00:41:17;;;;;;;6.20;2.70;;;;;;;16.31;100.00;99928.34;4964055;28;20290;-71
2023/09/21 00:43:43;;;;;;;5.53;2.40;;;;;;;16.74;100.00;100000.41;4961521;28;20546;-71
2023/09/21 00:46:09;;;;;;;3.80;2.20;;;;;;;16.14;100.00;99898.72;4948126;28;21000;-71
2023/09/21 00:48:38;;;;;;;4.33;2.13;;;;;;;15.97;100.00;99872.66;4945854;28;20241;-71
2023/09/21 00:51:07;;;;;;;4.53;2.23;;;;;;;16.65;100.00;99985.72;4938975;28;20490;-71
2023/09/21 00:53:34;;;;;;;4.90;2.40;;;;;;;15.97;100.00;99872.66;4954474;28;20709;-71
2023/09/21 00:56:08;;;;;;;4.40;1.80;;;;;;;16.04;100.00;99888.66;4945218;28;20954;-72
2023/09/21 00:58:36;;;;;;;5.13;1.93;;;;;;;16.49;100.00;99971.28;4943450;28;20466;-71
2023/09/21 01:01:02;;;;;;;4.40;2.37;;;;;;;16.39;100.00;99939.53;4943535;28;20450;-71
2023/09/21 01:03:28;;;;;;;4.30;2.10;;;;;;;16.02;100.00;99867.25;4944128;28;20462;-71
2023/09/21 01:05:54;;;;;;;4.40;1.90;;;;;;;16.61;100.00;99958.38;4944815;28;21249;-71
2023/09/21 01:08:28;;;;;;;3.53;1.50;;;;;;;16.00;100.00;99887.53;4942584;28;20814;-71
2023/09/21 01:10:55;;;;;;;5.53;2.00;;;;;;;16.43;100.00;99929.81;4960512;28;20465;-71
2023/09/21 01:13:20;;;;;;;4.33;2.20;;;;;;;16.24;100.00;99879.88;4944449;28;20481;-71
2023/09/21 01:16:01;;;;;;;3.80;2.07;;;;;;;15.88;100.00;99832.78;4958925;28;20450;-71
2023/09/21 01:18:27;;;;;;;4.40;1.80;;;;;;;15.52;100.00;99754.91;4942627;28;20205;-71
2023/09/21 01:20:59;;;;;;;4.00;1.90;;;;;;;16.75;100.00;99939.78;4944911;28;20454;-71
2023/09/21 01:23:46;;;;;;;3.80;1.83;;;;;;;16.02;100.00;99823.97;4959571;28;20272;-71
2023/09/21 01:26:16;;;;;;;6.73;2.10;;;;;;;16.61;100.00;99903.41;4942856;28;20458;-71
2023/09/21 01:28:42;;;;;;;5.00;2.10;;;;;;;16.13;100.00;99845.72;4946360;28;20473;-71
2023/09/21 01:31:13;;;;;;;5.57;2.20;;;;;;;15.95;100.00;99795.53;4942748;28;20442;-71
2023/09/21 01:33:39;;;;;;;4.83;1.57;;;;;;;16.56;100.00;99887.94;4975065;28;20509;-71
2023/09/21 01:36:08;;;;;;;5.40;2.10;;;;;;;16.03;100.00;99793.16;4943859;28;20442;-71
2023/09/21 01:38:34;;;;;;;4.27;1.90;;;;;;;16.17;100.00;99806.22;4930091;28;20957;-71
2023/09/21 01:41:00;;;;;;;4.57;1.70;;;;;;;16.69;100.00;99894.78;4943256;28;20949;-71
2023/09/21 01:43:26;;;;;;;3.97;1.70;;;;;;;15.97;100.00;99794.22;4943341;28;20522;-71
2023/09/21 01:45:51;;;;;;;3.00;1.70;;;;;;;16.56;100.00;99865.47;4945745;28;20455;-71
2023/09/21 01:48:20;;;;;;;4.00;2.17;;;;;;;15.66;100.00;99755.28;4965076;28;20550;-71
2023/09/21 01:50:51;;;;;;;4.00;1.80;;;;;;;16.00;100.00;99790.19;4946004;28;20183;-71
2023/09/21 01:53:19;;;;;;;4.37;1.93;;;;;;;16.69;100.00;99879.38;4947698;28;20557;-72
2023/09/21 01:55:47;;;;;;;4.90;2.20;;;;;;;16.11;100.00;99797.25;4977968;28;20832;-71
2023/09/21 01:58:13;;;;;;;5.70;1.77;;;;;;;15.93;100.00;99773.34;4955993;28;21005;-71
2023/09/21 02:00:40;;;;;;;4.47;1.60;;;;;;;16.00;100.00;99774.75;4958511;28;21107;-71
2023/09/21 02:03:08;;;;;;;4.60;2.20;;;;;;;16.62;100.00;99878.78;4949368;28;20458;-71
2023/09/21 02:05:35;;;;;;;4.07;2.10;;;;;;;16.15;100.00;99825.44;4956346;28;20461;-71
2023/09/21 02:08:00;;;;;;;4.10;1.97;;;;;;;16.32;100.00;99822.56;4963525;28;20434;-71
2023/09/21 02:10:26;;;;;;;3.50;1.77;;;;;;;16.38;100.00;99843.19;4948464;28;20484;-71
2023/09/21 02:12:59;;;;;;;3.77;1.80;;;;;;;16.00;100.00;99777.47;4947617;28;20214;-71
2023/09/21 02:15:27;;;;;;;3.77;1.97;;;;;;;16.50;100.00;99841.06;4960081;28;20191;-71
2023/09/21 02:17:56;;;;;;;3.43;1.87;;;;;;;15.88;100.00;99733.59;4945898;28;20845;-71
2023/09/21 02:20:27;;;;;;;3.73;1.70;;;;;;;16.50;100.00;99834.84;4962892;28;20509;-72
2023/09/21 02:23:01;;;;;;;4.70;1.80;;;;;;;16.01;100.00;99773.69;4964997;28;20498;-71
2023/09/21 02:25:34;;;;;;;3.83;1.70;;;;;;;15.88;100.00;99733.59;4964362;28;20449;-71
2023/09/21 02:28:00;;;;;;;4.53;2.07;;;;;;;16.07;100.00;99739.38;4947737;28;20458;-71
2023/09/21 02:30:25;;;;;;;5.27;1.80;;;;;;;16.39;100.00;99771.72;4947986;28;20442;-71
2023/09/21 02:32:53;;;;;;;3.70;1.70;;;;;;;15.92;100.00;99736.56;4978929;28;20583;-71
2023/09/21 02:35:23;;;;;;;3.80;1.73;;;;;;;16.65;100.00;99815.97;4963506;28;20249;-71
2023/09/21 02:37:51;;;;;;;5.50;1.90;;;;;;;15.86;100.00;99697.06;4964353;28;20438;-71
2023/09/21 02:40:19;;;;;;;4.23;1.90;;;;;;;16.00;100.00;99696.34;4945442;28;20478;-71
2023/09/21 02:42:49;;;;;;;4.87;1.77;;;;;;;16.11;100.00;99729.63;4948035;28;20462;-71
2023/09/21 02:45:18;;;;;;;6.47;2.20;;;;;;;15.92;100.00;99682.50;4949958;28;20437;-71
2023/09/21 02:47:44;;;;;;;3.57;1.73;;;;;;;15.92;100.00;99699.53;4947759;28;20442;-71
2023/09/21 02:50:25;;;;;;;3.00;1.47;;;;;;;16.38;100.00;99745.75;4962407;28;20446;-71
2023/09/21 02:52:57;;;;;;;3.33;1.57;;;;;;;16.65;100.00;99791.59;4958714;28;20490;-71
2023/09/21 02:55:27;;;;;;;3.43;1.53;;;;;;;15.92;100.00;99686.00;4936672;28;20465;-71
2023/09/21 02:58:05;;;;;;;3.03;1.60;;;;;;;16.70;100.00;99788.13;4946410;28;20438;-71
2023/09/21 03:02:57;;;;;;;4.37;1.90;;;;;;;16.44;100.00;99776.38;4949291;28;20879;-71
2023/09/21 03:05:25;;;;;;;6.33;1.97;;;;;;;16.19;100.00;99734.56;4944316;28;20489;-71
2023/09/21 03:07:51;;;;;;;4.27;1.73;;;;;;;15.91;100.00;99703.31;4958653;28;20183;-71
2023/09/21 03:10:18;;;;;;;5.20;1.73;;;;;;;16.44;100.00;99782.59;4961871;28;21030;-71
2023/09/21 03:12:47;;;;;;;4.13;1.67;;;;;;;16.38;100.00;99759.28;4946507;28;20485;-71
2023/09/21 03:15:14;;;;;;;3.57;1.73;;;;;;;16.44;100.00;99781.78;4950085;28;20453;-71
2023/09/21 03:17:43;;;;;;;4.13;1.87;;;;;;;15.84;100.00;99680.28;4961275;28;20442;-71
2023/09/21 03:20:12;;;;;;;4.33;1.70;;;;;;;16.33;100.00;99761.97;4948815;28;20533;-71
2023/09/21 03:22:38;;;;;;;3.70;1.73;;;;;;;15.98;100.00;99713.88;4960675;28;20501;-71
2023/09/21 03:25:11;;;;;;;3.60;1.47;;;;;;;15.71;100.00;99671.56;4950171;28;20783;-71
2023/09/21 03:27:38;;;;;;;3.40;1.63;;;;;;;15.83;100.00;99693.00;4959686;28;20439;-71
2023/09/21 03:30:05;;;;;;;5.20;2.07;;;;;;;15.70;100.00;99694.25;4958951;28;20492;-71
2023/09/21 03:32:31;;;;;;;4.90;1.80;;;;;;;16.06;100.00;99728.81;4958546;28;20479;-71
2023/09/21 03:34:56;;;;;;;4.20;1.87;;;;;;;16.13;100.00;99718.56;4944276;28;20449;-71
2023/09/21 03:37:22;;;;;;;3.93;1.80;;;;;;;15.69;100.00;99665.59;4945811;28;20492;-71
2023/09/21 03:39:47;;;;;;;4.07;2.30;;;;;;;16.36;100.00;99737.06;4945834;28;20211;-71
2023/09/21 03:42:13;;;;;;;3.37;1.70;;;;;;;16.16;100.00;99743.19;4947016;28;20191;-71
2023/09/21 03:44:38;;;;;;;4.00;1.80;;;;;;;16.24;100.00;99734.59;4948544;28;20537;-71
2023/09/21 03:47:04;;;;;;;4.40;1.90;;;;;;;15.77;100.00;99683.22;4946877;28;20202;-71
2023/09/21 03:49:30;;;;;;;3.70;1.60;;;;;;;16.42;100.00;99767.69;4945504;28;20187;-71
2023/09/21 03:51:55;;;;;;;4.60;1.70;;;;;;;15.73;100.00;99680.19;4946870;28;20446;-71
2023/09/21 03:54:21;;;;;;;3.90;2.07;;;;;;;16.40;100.00;99767.97;4944721;28;20481;-71
2023/09/21 03:56:46;;;;;;;5.70;1.87;;;;;;;16.33;100.00;99750.31;4962583;28;20199;-71
2023/09/21 03:59:12;;;;;;;3.97;1.70;;;;;;;15.45;100.00;99657.03;4943768;28;20253;-71
2023/09/21 04:01:37;;;;;;;5.10;1.50;;;;;;;15.99;100.00;99713.63;4944547;28;21262;-71
2023/09/21 04:04:17;;;;;;;3.10;1.47;;;;;;;16.39;100.00;99755.50;4946936;28;20282;-71
2023/09/21 04:06:43;;;;;;;3.47;1.73;;;;;;;16.34;100.00;99736.50;4956975;28;20195;-71
2023/09/21 04:09:09;;;;;;;2.80;1.40;;;;;;;16.49;100.00;99750.13;4944317;28;20937;-72
2023/09/21 04:11:34;;;;;;;3.90;1.63;;;;;;;16.25;100.00;99733.50;4947043;28;20469;-71
2023/09/21 04:14:01;;;;;;;3.30;1.43;;;;;;;16.42;100.00;99748.75;4947509;28;20214;-71
2023/09/21 04:16:28;;;;;;;5.63;1.60;;;;;;;16.35;100.00;99746.28;4945293;28;20278;-71
2023/09/21 04:18:54;;;;;;;7.50;2.03;;;;;;;15.64;100.00;99640.38;4947450;28;20518;-71
2023/09/21 04:21:20;;;;;;;3.63;1.40;;;;;;;15.68;100.00;99628.84;4963992;28;20435;-71
2023/09/21 04:23:46;;;;;;;3.47;1.40;;;;;;;16.34;100.00;99741.13;4961056;28;20919;-71
2023/09/21 04:26:12;;;;;;;3.40;1.43;;;;;;;15.76;100.00;99632.91;4948065;28;20199;-71
2023/09/21 04:28:37;;;;;;;3.60;1.67;;;;;;;15.60;100.00;99608.47;4945019;28;20191;-72
2023/09/21 04:31:02;;;;;;;3.20;1.40;;;;;;;15.97;100.00;99631.94;4938070;28;20450;-71
2023/09/21 04:33:28;;;;;;;3.20;1.40;;;;;;;16.56;100.00;99703.88;4935722;28;20223;-71
2023/09/21 04:35:53;;;;;;;4.40;1.30;;;;;;;16.58;100.00;99693.59;4946492;28;20191;-71
2023/09/21 04:38:19;;;;;;;3.40;1.50;;;;;;;16.09;100.00;99611.97;4946804;28;20650;-71
2023/09/21 04:40:46;;;;;;;3.17;1.37;;;;;;;16.76;100.00;99681.47;4944123;28;20194;-71
2023/09/21 04:43:13;;;;;;;4.27;1.70;;;;;;;15.59;100.00;99504.16;4944028;28;20594;-71
2023/09/21 04:45:38;;;;;;;4.13;1.53;;;;;;;16.13;100.00;99551.66;4944195;28;20706;-71
2023/09/21 04:48:04;;;;;;;3.33;1.73;;;;;;;16.86;100.00;99634.63;4939635;28;20442;-71
2023/09/21 04:50:30;;;;;;;5.30;1.80;;;;;;;16.62;100.00;99599.13;4957366;28;20226;-71
2023/09/21 04:52:55;;;;;;;4.40;1.80;;;;;;;16.57;100.00;99559.31;4944510;28;20231;-71
2023/09/21 04:55:21;;;;;;;5.13;1.87;;;;;;;16.29;100.00;99511.94;4939789;28;20258;-71
2023/09/21 04:57:47;;;;;;;4.20;1.60;;;;;;;16.86;100.00;99597.53;4940888;28;20745;-71
2023/09/21 05:00:14;;;;;;;4.13;1.83;;;;;;;16.30;100.00;99515.44;4943297;28;20195;-71
2023/09/21 05:03:26;;;;;;;3.20;1.60;;;;;;;16.91;100.00;99594.03;4940488;28;20218;-71
2023/09/21 05:05:54;;;;;;;3.20;1.60;;;;;;;16.41;100.00;99519.81;4953851;28;20527;-71
2023/09/21 05:08:19;;;;;;;3.57;1.57;;;;;;;16.75;100.00;99586.94;4944115;28;20434;-71
2023/09/21 05:10:44;;;;;;;5.03;1.90;;;;;;;16.41;100.00;99500.84;4959496;28;20832;-71
2023/09/21 05:13:10;;;;;;;3.13;1.23;;;;;;;16.10;100.00;99444.00;4945339;28;20219;-71
2023/09/21 05:15:36;;;;;;;3.13;1.53;;;;;;;16.06;100.00;99447.53;4947003;28;20284;-71
2023/09/21 05:18:02;;;;;;;3.90;1.77;;;;;;;16.53;100.00;99511.41;4946477;28;21021;-71
2023/09/21 05:20:28;;;;;;;3.07;1.43;;;;;;;16.41;100.00;99504.38;4935508;28;20195;-71
2023/09/21 05:22:53;;;;;;;5.90;1.80;;;;;;;16.42;100.00;99502.47;4943295;28;20488;-72
2023/09/21 05:25:19;;;;;;;10.83;1.90;;;;;;;16.73;100.00;99563.66;4944596;28;22367;-71
2023/09/21 05:27:44;;;;;;;3.93;1.40;;;;;;;16.31;100.00;99466.47;4944657;28;20245;-71
2023/09/21 05:30:10;;;;;;;4.10;2.03;;;;;;;16.78;100.00;99533.09;4945652;28;20195;-71
2023/09/21 05:32:36;;;;;;;3.70;1.63;;;;;;;16.90;100.00;99541.75;4959246;28;20682;-71
2023/09/21 05:35:03;;;;;;;4.10;1.30;;;;;;;16.20;100.00;99425.09;4958475;28;20446;-71
2023/09/21 05:37:29;;;;;;;4.13;1.80;;;;;;;16.88;100.00;99519.53;4930637;28;20550;-72
2023/09/21 05:39:55;;;;;;;3.60;2.00;;;;;;;16.05;100.00;99381.78;4958673;28;20530;-71
2023/09/21 05:42:23;;;;;;;3.37;1.43;;;;;;;16.84;100.00;99485.97;4945762;28;20194;-71
2023/09/21 05:44:49;;;;;;;3.47;1.60;;;;;;;16.94;100.00;99521.16;4962061;28;20513;-71
2023/09/21 05:47:14;;;;;;;3.40;1.50;;;;;;;17.00;100.00;99504.91;4961317;28;20611;-71
2023/09/21 05:49:40;;;;;;;3.40;1.37;;;;;;;17.09;100.00;99492.41;4975296;28;20233;-71
2023/09/21 05:52:11;;;;;;;3.90;1.67;;;;;;;17.10;100.00;99467.78;4945742;28;20215;-72
2023/09/21 05:54:37;;;;;;;3.60;1.40;;;;;;;16.41;100.00;99333.88;4959279;28;20483;-71
2023/09/21 05:57:03;;;;;;;4.07;1.70;;;;;;;16.73;100.00;99362.50;4948303;28;20449;-71
2023/09/21 05:59:31;;;;;;;3.10;1.40;;;;;;;16.75;100.00;99354.91;4944524;28;20808;-71
2023/09/21 06:01:59;;;;;;;5.43;1.50;;;;;;;17.35;100.00;99412.66;4960571;28;20470;-71
2023/09/21 06:04:25;;;;;;;3.77;1.70;;;;;;;17.40;100.00;99406.41;4943457;28;20545;-71
2023/09/21 06:06:54;;;;;;;3.90;1.50;;;;;;;16.81;100.00;99294.28;4945517;28;20462;-71
2023/09/21 06:09:20;;;;;;;4.63;1.93;;;;;;;16.73;100.00;99270.44;4962067;28;20330;-71
2023/09/21 06:11:50;;;;;;;6.50;2.20;;;;;;;17.58;100.00;99373.25;4945437;28;20824;-72
2023/09/21 06:14:17;;;;;;;3.73;1.60;;;;;;;17.05;100.00;99247.56;4952732;28;20486;-71
2023/09/21 06:16:43;;;;;;;4.83;2.10;;;;;;;17.10;100.00;99220.47;4956969;28;20435;-71
2023/09/21 06:19:12;;;;;;;3.70;1.37;;;;;;;17.78;100.00;99312.66;4944290;28;20449;-71
2023/09/21 06:21:41;;;;;;;3.57;1.73;;;;;;;17.16;100.00;99198.47;4944908;28;20453;-71
2023/09/21 06:24:08;;;;;;;8.20;1.90;;;;;;;17.24;100.00;99174.53;4942288;28;20458;-71
2023/09/21 06:26:34;;;;;;;3.20;1.60;;;;;;;17.91;100.00;99229.03;4958697;28;20467;-71
2023/09/21 06:29:00;;;;;;;3.80;1.87;;;;;;;17.75;100.00;99218.28;4942953;28;20446;-71
2023/09/21 06:31:26;;;;;;;4.10;1.63;;;;;;;16.72;100.00;99063.06;4943032;28;20961;-72
2023/09/21 06:33:57;;;;;;;3.70;1.33;;;;;;;17.34;100.00;99166.34;4949381;28;20223;-71
2023/09/21 06:36:22;;;;;;;3.23;1.60;;;;;;;17.37;100.00;99169.28;4949387;28;20840;-71
2023/09/21 06:38:50;;;;;;;3.60;1.53;;;;;;;17.38;100.00;99145.69;4947537;28;20499;-71
2023/09/21 06:41:16;;;;;;;5.37;1.50;;;;;;;17.99;100.00;99233.81;4947993;28;20179;-71
2023/09/21 06:43:44;;;;;;;3.27;1.30;;;;;;;17.35;100.00;99127.31;4947939;28;20680;-72
2023/09/21 06:46:11;;;;;;;3.80;1.50;;;;;;;17.34;100.00;99131.13;4948314;28;20521;-72
2023/09/21 06:48:37;;;;;;;4.50;1.30;;;;;;;17.32;100.00;99125.97;4939813;28;20446;-72
2023/09/21 06:51:07;;;;;;;3.93;1.60;;;;;;;18.06;100.00;99207.19;4946501;28;20813;-72
2023/09/21 06:53:36;;;;;;;4.50;1.93;;;;;;;17.89;100.00;99164.22;4955494;28;20514;-72
2023/09/21 06:56:03;;;;;;;3.33;1.50;;;;;;;18.13;100.00;99175.06;4938222;28;20450;-72
2023/09/21 06:58:30;;;;;;;4.37;1.40;;;;;;;18.13;100.00;99175.06;4947997;28;20445;-71
2023/09/21 07:00:57;;;;;;;4.23;1.67;;;;;;;18.15;100.00;99181.03;4947545;28;20497;-72
2023/09/21 07:03:23;;;;;;;3.87;1.63;;;;;;;18.14;100.00;99167.72;4943505;28;20457;-72
2023/09/21 07:05:48;;;;;;;5.70;1.50;;;;;;;17.82;100.00;99110.34;4943423;28;20438;-72
2023/09/21 07:08:15;;;;;;;5.70;1.97;;;;;;;17.57;100.00;99078.84;4938697;28;20281;-71
2023/09/21 07:10:40;;;;;;;4.40;1.50;;;;;;;17.61;100.00;99085.28;4944623;28;20194;-71
2023/09/21 07:13:07;;;;;;;4.40;1.73;;;;;;;18.30;100.00;99152.88;4947193;28;20502;-72
2023/09/21 07:15:33;;;;;;;4.53;1.90;;;;;;;17.67;100.00;99072.50;4941949;28;20202;-72
2023/09/21 07:17:58;;;;;;;5.90;1.63;;;;;;;17.85;100.00;99070.97;4946240;28;20435;-72
2023/09/21 07:20:26;;;;;;;4.30;1.57;;;;;;;18.25;100.00;99137.50;4959893;28;20943;-72
2023/09/21 07:22:54;;;;;;;4.40;1.57;;;;;;;17.67;100.00;99041.88;4975431;28;20218;-70
2023/09/21 07:25:22;;;;;;;4.40;1.77;;;;;;;18.33;100.00;99141.44;4947625;28;20491;-70
2023/09/21 07:27:48;;;;;;;4.83;1.60;;;;;;;18.20;100.00;99096.03;4977924;28;20470;-70
2023/09/21 07:30:14;;;;;;;3.50;1.63;;;;;;;18.28;100.00;99112.47;4948591;28;20984;-70
2023/09/21 07:32:40;;;;;;;4.30;1.73;;;;;;;18.51;100.00;99113.53;4944835;28;20505;-70
2023/09/21 07:35:06;;;;;;;5.17;1.93;;;;;;;17.91;100.00;98996.59;4946892;28;20195;-70
2023/09/21 07:37:32;;;;;;;3.40;1.70;;;;;;;18.61;100.00;99081.91;4946616;28;20466;-70
2023/09/21 07:40:02;;;;;;;5.07;1.97;;;;;;;17.83;100.00;98984.47;4946508;28;20545;-70
2023/09/21 07:42:28;;;;;;;5.07;1.37;;;;;;;18.62;100.00;99081.59;4975580;28;20442;-70
2023/09/21 07:44:53;;;;;;;4.03;2.10;;;;;;;18.63;100.00;99085.09;4948609;28;20522;-70
2023/09/21 07:47:19;;;;;;;3.40;1.40;;;;;;;18.52;100.00;99071.69;4976699;28;20269;-70
2023/09/21 07:49:44;;;;;;;6.40;2.17;;;;;;;18.65;100.00;99094.56;4959944;28;20606;-70
2023/09/21 07:52:10;;;;;;;7.10;1.53;;;;;;;17.93;100.00;98969.97;4976128;28;20266;-70
2023/09/21 07:54:35;;;;;;;5.60;1.83;;;;;;;18.69;100.00;99089.38;4941636;28;20213;-70
2023/09/21 07:57:03;;;;;;;3.33;1.50;;;;;;;18.24;100.00;99011.03;4945489;28;20310;-70
2023/09/21 07:59:28;;;;;;;4.50;1.50;;;;;;;18.32;100.00;99035.91;4962040;28;20282;-70
2023/09/21 08:01:56;;;;;;;3.50;1.60;;;;;;;18.05;100.00;99000.19;4947912;28;20555;-70
2023/09/21 08:04:21;;;;;;;4.53;1.67;;;;;;;18.70;100.00;99118.94;4945715;28;20214;-70
2023/09/21 08:06:48;;;;;;;5.13;1.33;;;;;;;18.58;100.00;99066.19;4943611;28;20442;-70
2023/09/21 08:09:14;;;;;;;4.60;1.83;;;;;;;18.50;100.00;99048.66;4945121;28;20306;-70
2023/09/21 08:11:40;;;;;;;3.63;1.80;;;;;;;18.29;100.00;99008.25;4959049;28;20531;-70
2023/09/21 08:14:06;;;;;;;4.03;1.60;;;;;;;18.13;100.00;98993.28;4958365;28;21101;-70
2023/09/21 08:16:32;;;;;;;5.47;1.43;;;;;;;18.69;100.00;99045.94;4978674;28;20433;-70
2023/09/21 08:18:58;;;;;;;3.50;1.80;;;;;;;18.21;100.00;98970.13;4960837;28;20584;-70
2023/09/21 08:21:24;;;;;;;3.40;1.87;;;;;;;18.35;100.00;98981.03;4942830;28;20439;-70
2023/09/21 08:23:50;;;;;;;3.57;1.50;;;;;;;18.46;100.00;98982.50;4946999;28;20234;-70
2023/09/21 08:26:15;;;;;;;3.30;1.30;;;;;;;19.15;100.00;99089.47;4949464;28;20925;-70
2023/09/21 08:28:41;;;;;;;3.33;1.47;;;;;;;18.49;100.00;98966.41;4945859;28;20237;-70
2023/09/21 08:31:09;;;;;;;3.70;1.33;;;;;;;19.04;100.00;99013.88;4945488;28;20210;-70
2023/09/21 08:33:35;;;;;;;3.77;1.70;;;;;;;19.09;100.00;99032.78;4947055;28;20302;-70
2023/09/21 08:36:00;;;;;;;3.40;1.67;;;;;;;18.97;100.00;99011.53;4946681;28;20537;-70
2023/09/21 08:38:26;;;;;;;4.73;2.03;;;;;;;19.46;100.00;99055.50;4959943;28;20246;-70
2023/09/21 08:40:52;;;;;;;3.53;1.53;;;;;;;19.44;100.00;99034.06;4942361;28;20249;-70
2023/09/21 08:43:24;;;;;;;6.40;1.93;;;;;;;18.82;100.00;98941.97;4945398;28;21135;-70
2023/09/21 08:45:50;;;;;;;4.40;2.00;;;;;;;19.01;100.00;98960.94;4944712;28;20445;-75
2023/09/21 08:48:19;;;;;;;3.90;1.50;;;;;;;18.83;100.00;98915.63;4945872;28;20438;-70
2023/09/21 08:50:48;;;;;;;4.10;1.70;;;;;;;18.92;100.00;98962.72;4946550;28;20441;-70
2023/09/21 08:53:18;;;;;;;4.53;1.70;;;;;;;19.38;100.00;99048.81;4943693;28;20918;-70
2023/09/21 08:55:48;;;;;;;5.67;1.90;;;;;;;18.85;100.00;98957.66;4944840;28;20993;-70
2023/09/21 08:58:24;;;;;;;3.30;1.60;;;;;;;18.63;100.00;98930.34;4931565;28;20726;-70
2023/09/21 09:00:57;;;;;;;4.97;1.97;;;;;;;19.40;100.00;99041.97;4943588;28;20443;-70
2023/09/21 09:03:26;;;;;;;4.20;1.60;;;;;;;18.84;100.00;98960.69;4944045;28;20470;-70
2023/09/21 09:05:55;;;;;;;6.70;1.70;;;;;;;19.41;100.00;99040.06;4944587;28;20564;-70
2023/09/21 09:08:21;;;;;;;3.97;1.80;;;;;;;18.89;100.00;98972.28;4944293;28;20443;-70
2023/09/21 09:10:46;;;;;;;5.80;2.37;;;;;;;19.48;100.00;99051.38;4946712;28;20589;-70
2023/09/21 09:13:12;;;;;;;4.60;1.70;;;;;;;19.48;100.00;99028.81;4945806;28;20518;-70
2023/09/21 09:15:38;;;;;;;4.50;1.80;;;;;;;19.26;100.00;98970.50;4944304;28;20198;-71
2023/09/21 09:18:08;;;;;;;4.33;2.20;;;;;;;19.54;100.00;99033.03;4960053;28;20199;-70
2023/09/21 09:20:36;;;;;;;3.87;1.70;;;;;;;18.89;100.00;98906.25;4943009;28;21005;-70
2023/09/21 09:23:03;;;;;;;4.40;2.10;;;;;;;19.56;100.00;99026.19;4944749;28;20857;-70
2023/09/21 09:25:28;;;;;;;5.93;1.73;;;;;;;19.18;100.00;98955.72;4945081;28;20486;-70
2023/09/21 09:27:54;;;;;;;4.30;2.27;;;;;;;19.07;100.00;98954.28;4946122;28;20956;-71
2023/09/21 09:30:23;;;;;;;5.23;1.67;;;;;;;19.36;100.00;98983.91;4943564;28;20199;-70
2023/09/21 09:32:50;;;;;;;4.43;2.07;;;;;;;18.91;100.00;98898.63;4946237;28;20482;-70
2023/09/21 09:35:17;;;;;;;5.97;1.80;;;;;;;19.40;100.00;98979.44;4975280;28;20449;-70
2023/09/21 09:37:44;;;;;;;4.53;2.50;;;;;;;19.35;100.00;98971.41;4942545;28;20457;-70
2023/09/21 09:40:13;;;;;;;3.80;1.50;;;;;;;19.37;100.00;98993.66;4944715;28;20450;-70
2023/09/21 09:42:45;;;;;;;9.03;2.20;;;;;;;19.15;100.00;98983.50;4944397;28;20476;-71
2023/09/21 09:45:18;;;;;;;3.27;1.40;;;;;;;18.90;100.00;99002.97;4934581;28;20984;-70
2023/09/21 09:48:10;;;;;;;6.43;2.50;;;;;;;19.24;100.00;99137.69;4943589;28;20454;-70
2023/09/21 09:50:35;;;;;;;5.63;1.50;;;;;;;18.52;100.00;99103.47;4944945;28;20447;-70
2023/09/21 09:53:05;;;;;;;4.70;2.60;;;;;;;19.00;100.00;99250.00;4942710;28;20475;-71
2023/09/21 09:55:35;;;;;;;6.53;2.30;;;;;;;18.94;100.00;99317.19;4950142;28;20278;-71
2023/09/21 09:58:02;;;;;;;5.03;2.80;;;;;;;18.60;100.00;99366.22;4943301;28;20445;-71
2023/09/21 10:00:29;;;;;;;4.07;2.30;;;;;;;18.39;100.00;99400.06;4944372;28;20481;-71
2023/09/21 10:02:56;;;;;;;5.43;2.97;;;;;;;18.33;100.00;99439.22;4940648;28;22102;-70
2023/09/21 10:05:24;;;;;;;6.03;2.80;;;;;;;18.30;100.00;99566.25;4945055;28;20450;-71
2023/09/21 10:07:50;;;;;;;4.70;2.70;;;;;;;18.44;100.00;99619.94;4946920;28;20971;-71
2023/09/21 10:10:19;;;;;;;4.63;1.80;;;;;;;17.62;100.00;99566.81;4948571;28;20532;-70
2023/09/21 10:12:47;;;;;;;4.80;2.30;;;;;;;17.58;100.00;99613.72;4948390;28;20470;-71
2023/09/21 10:15:13;;;;;;;5.13;2.33;;;;;;;17.94;100.00;99697.75;4947408;28;20438;-70
2023/09/21 10:17:38;;;;;;;5.83;2.90;;;;;;;17.66;100.00;99702.66;4939517;28;20453;-71
2023/09/21 10:20:32;;;;;;;3.83;1.90;;;;;;;17.27;100.00;99672.56;4948336;28;20206;-70
2023/09/21 10:22:59;;;;;;;4.90;1.73;;;;;;;17.42;100.00;99729.50;4946822;28;20336;-71
2023/09/21 10:25:38;;;;;;;4.40;2.20;;;;;;;17.32;100.00;99754.69;4949109;28;20513;-70
2023/09/21 10:28:27;;;;;;;4.50;2.10;;;;;;;18.03;100.00;99864.31;4945026;28;21437;-71
2023/09/21 10:31:09;;;;;;;4.13;2.03;;;;;;;17.29;100.00;99763.38;4951270;28;20462;-71
2023/09/21 10:33:58;;;;;;;4.50;2.17;;;;;;;17.92;100.00;99890.63;4960788;28;21005;-71
2023/09/21 10:36:26;;;;;;;4.40;1.97;;;;;;;17.16;100.00;99775.56;4953622;28;20521;-70
2023/09/21 10:39:10;;;;;;;4.50;2.37;;;;;;;17.83;100.00;99894.97;4945014;28;20450;-70
2023/09/21 10:41:42;;;;;;;4.60;2.40;;;;;;;17.76;100.00;99884.38;4964596;28;20437;-70
2023/09/21 10:44:08;;;;;;;4.80;2.70;;;;;;;17.61;100.00;99870.75;4962528;28;20537;-70
2023/09/21 10:46:34;;;;;;;5.40;2.60;;;;;;;17.89;100.00;99926.44;4946742;28;21025;-71
2023/09/21 10:49:03;;;;;;;6.67;2.83;;;;;;;17.95;100.00;99917.22;4948737;28;21284;-70
2023/09/21 10:51:29;;;;;;;7.20;2.33;;;;;;;17.20;100.00;99816.47;4944951;28;20498;-71
2023/09/21 10:53:58;;;;;;;4.90;1.73;;;;;;;17.90;100.00;99924.53;4941630;28;20996;-71
2023/09/21 10:56:25;;;;;;;4.77;2.37;;;;;;;17.38;100.00;99885.63;4946305;28;20442;-70
2023/09/21 10:58:50;;;;;;;4.00;2.00;;;;;;;17.69;100.00;99934.50;4957403;28;20586;-70
2023/09/21 11:01:17;;;;;;;4.73;2.50;;;;;;;17.36;100.00;99864.22;4939229;28;20446;-70
2023/09/21 11:03:42;;;;;;;3.40;1.83;;;;;;;17.87;100.00;99942.16;4955904;28;20234;-71
2023/09/21 11:06:09;;;;;;;4.47;2.40;;;;;;;17.21;100.00;99853.31;4955382;28;20819;-71
2023/09/21 11:08:34;;;;;;;4.37;2.50;;;;;;;17.15;100.00;99860.63;4942152;28;20261;-71
2023/09/21 11:11:02;;;;;;;4.10;1.77;;;;;;;17.22;100.00;99863.09;4943021;28;20446;-71
2023/09/21 11:13:29;;;;;;;4.13;2.10;;;;;;;17.29;100.00;99866.34;4943748;28;20240;-71
2023/09/21 11:15:55;;;;;;;7.30;2.50;;;;;;;17.31;100.00;99888.59;4948980;28;20457;-71
2023/09/21 11:18:20;;;;;;;4.00;2.10;;;;;;;16.89;100.00;99892.22;4940421;28;20992;-71
2023/09/21 11:20:47;;;;;;;4.03;1.87;;;;;;;17.10;100.00;99927.53;4945502;28;20187;-70
2023/09/21 11:23:14;;;;;;;4.00;1.97;;;;;;;17.17;100.00;99933.53;4944765;28;20278;-70
2023/09/21 11:25:40;;;;;;;3.87;1.83;;;;;;;16.80;100.00;99901.91;4979113;28;20435;-70
2023/09/21 11:28:06;;;;;;;3.70;1.37;;;;;;;17.41;100.00;99996.22;4942815;28;20853;-70
2023/09/21 11:30:34;;;;;;;4.33;1.20;;;;;;;17.35;100.00;99968.28;4977527;28;20713;-71